Time;durP1;ratioP1;P1;durP2;ratioP2;P2;SDS_P1;SDS_P2;PMS_P1;PMS_P2;Temp;Humidity;BMP_temperature;BMP_pressure;BME280_temperature;BME280_humidity;BME280_pressure;Samples;Min_cycle;Max_cycle;Signal;HPM_P1;HPM_P2
2024/01/13 00:02:13;0.00;0.00;0.62;0.00;0.00;0.62;2.87;1.90;;;17.60;20.20;;;;;;2248338;61;20383;-59
2024/01/13 00:04:58;0.00;0.00;0.62;0.00;0.00;0.62;3.13;2.23;;;17.60;20.20;;;;;;2248478;61;20883;-55
2024/01/13 00:07:44;0.00;0.00;0.62;0.00;0.00;0.62;2.40;2.20;;;17.60;20.20;;;;;;2248512;61;20406;-57
2024/01/13 00:10:28;0.00;0.00;0.62;0.00;0.00;0.62;2.70;1.87;;;17.60;20.20;;;;;;2248522;61;20359;-54
2024/01/13 00:13:13;0.00;0.00;0.62;0.00;0.00;0.62;2.20;1.60;;;17.60;20.20;;;;;;2247890;61;20419;-59
2024/01/13 00:15:58;0.00;0.00;0.62;0.00;0.00;0.62;2.80;2.37;;;17.60;20.20;;;;;;2248812;61;20368;-54
2024/01/13 00:18:43;0.00;0.00;0.62;0.00;0.00;0.62;2.50;1.90;;;17.60;20.20;;;;;;2248322;61;20447;-58
2024/01/13 00:21:28;0.00;0.00;0.62;0.00;0.00;0.62;2.70;2.00;;;17.60;20.20;;;;;;2248298;61;20443;-54
2024/01/13 00:24:14;0.00;0.00;0.62;0.00;0.00;0.62;2.73;2.10;;;17.60;20.20;;;;;;2248496;61;20462;-60
2024/01/13 00:26:59;0.00;0.00;0.62;0.00;0.00;0.62;2.83;1.80;;;17.60;20.20;;;;;;2248539;61;20380;-54
2024/01/13 00:29:43;0.00;0.00;0.62;0.00;0.00;0.62;3.20;2.10;;;17.60;20.20;;;;;;2248205;61;20369;-58
2024/01/13 00:32:28;0.00;0.00;0.62;0.00;0.00;0.62;3.00;2.00;;;17.70;20.30;;;;;;2248184;61;20386;-58
2024/01/13 00:35:12;0.00;0.00;0.62;0.00;0.00;0.62;2.37;2.10;;;17.60;20.20;;;;;;2248111;61;20368;-55
2024/01/13 00:37:57;0.00;0.00;0.62;0.00;0.00;0.62;2.60;1.60;;;17.60;20.20;;;;;;2248528;61;20395;-58
2024/01/13 00:40:44;0.00;0.00;0.62;0.00;0.00;0.62;2.93;1.70;;;17.60;20.20;;;;;;2248540;61;20387;-56
2024/01/13 00:43:28;0.00;0.00;0.62;0.00;0.00;0.62;2.30;1.77;;;17.60;20.20;;;;;;2247826;61;20375;-54
2024/01/13 00:46:13;0.00;0.00;0.62;0.00;0.00;0.62;2.87;2.37;;;17.60;20.20;;;;;;2248339;61;20368;-55
2024/01/13 00:48:58;0.00;0.00;0.62;0.00;0.00;0.62;2.70;1.90;;;17.60;20.20;;;;;;2248384;61;20464;-54
2024/01/13 00:51:42;0.00;0.00;0.62;0.00;0.00;0.62;2.87;2.13;;;17.60;20.20;;;;;;2247716;61;20912;-60
2024/01/13 00:54:27;0.00;0.00;0.62;0.00;0.00;0.62;2.30;1.83;;;17.60;20.20;;;;;;2248315;61;20443;-60
2024/01/13 00:57:13;0.00;0.00;0.62;0.00;0.00;0.62;2.57;1.90;;;17.60;20.20;;;;;;2247820;61;20367;-60
2024/01/13 00:59:58;0.00;0.00;0.62;0.00;0.00;0.62;2.90;2.30;;;17.60;20.20;;;;;;2248202;61;20386;-60
2024/01/13 01:02:42;0.00;0.00;0.62;0.00;0.00;0.62;2.63;2.20;;;17.60;20.20;;;;;;2247906;61;20386;-58
2024/01/13 01:05:27;0.00;0.00;0.62;0.00;0.00;0.62;3.43;2.20;;;17.60;20.20;;;;;;2248012;61;20492;-57
2024/01/13 01:08:11;0.00;0.00;0.62;0.00;0.00;0.62;3.10;2.40;;;17.60;20.20;;;;;;2248338;61;20411;-55
2024/01/13 01:10:56;0.00;0.00;0.62;0.00;0.00;0.62;2.90;2.30;;;17.60;20.30;;;;;;2248284;61;20829;-58
2024/01/13 01:13:43;0.00;0.00;0.62;0.00;0.00;0.62;3.80;2.63;;;17.60;20.30;;;;;;2247593;61;20434;-59
2024/01/13 01:16:28;0.00;0.00;0.62;0.00;0.00;0.62;3.30;2.43;;;17.60;20.20;;;;;;2248707;61;20367;-53
2024/01/13 01:19:13;0.00;0.00;0.62;0.00;0.00;0.62;2.33;1.93;;;17.60;20.20;;;;;;2248325;61;20391;-56
2024/01/13 01:21:57;0.00;0.00;0.62;0.00;0.00;0.62;3.63;2.83;;;17.60;20.20;;;;;;2248097;61;20388;-58
2024/01/13 01:24:42;0.00;0.00;0.62;0.00;0.00;0.62;3.10;2.43;;;17.60;20.30;;;;;;2248313;61;20391;-53
2024/01/13 01:27:26;0.00;0.00;0.62;0.00;0.00;0.62;4.30;2.57;;;17.60;20.30;;;;;;2248210;61;20371;-57
2024/01/13 01:30:13;0.00;0.00;0.62;0.00;0.00;0.62;3.13;2.57;;;17.60;20.30;;;;;;2248322;61;20793;-57
2024/01/13 01:32:57;0.00;0.00;0.62;0.00;0.00;0.62;3.67;2.70;;;17.60;20.20;;;;;;2248004;61;20407;-55
2024/01/13 01:35:42;0.00;0.00;0.62;0.00;0.00;0.62;2.80;2.13;;;17.60;20.20;;;;;;2247861;61;20355;-57
2024/01/13 01:38:27;0.00;0.00;0.62;0.00;0.00;0.62;2.90;2.40;;;17.60;20.20;;;;;;2248170;61;20475;-59
2024/01/13 01:41:15;0.00;0.00;0.62;0.00;0.00;0.62;2.90;2.37;;;17.60;20.30;;;;;;2248205;61;20936;-58
2024/01/13 01:44:00;0.00;0.00;0.62;0.00;0.00;0.62;3.43;2.47;;;17.60;20.30;;;;;;2248209;61;20427;-60
2024/01/13 01:46:46;0.00;0.00;0.62;0.00;0.00;0.62;2.70;2.13;;;17.60;20.30;;;;;;2248162;61;20375;-57
2024/01/13 01:49:31;0.00;0.00;0.62;0.00;0.00;0.62;5.00;2.57;;;17.60;20.20;;;;;;2248094;61;20388;-56
2024/01/13 01:52:16;0.00;0.00;0.62;0.00;0.00;0.62;2.60;2.10;;;17.60;20.20;;;;;;2247832;61;20963;-57
2024/01/13 01:55:01;0.00;0.00;0.62;0.00;0.00;0.62;2.83;2.10;;;17.60;20.20;;;;;;2248390;61;20372;-54
2024/01/13 01:57:45;0.00;0.00;0.62;0.00;0.00;0.62;3.23;2.00;;;17.60;20.30;;;;;;2248490;61;20434;-57
2024/01/13 02:00:32;0.00;0.00;0.62;0.00;0.00;0.62;3.50;2.30;;;17.60;20.30;;;;;;2248916;61;20410;-52
2024/01/13 02:03:18;0.00;0.00;0.62;0.00;0.00;0.62;2.50;2.03;;;17.60;20.30;;;;;;2248423;61;20386;-57
2024/01/13 02:06:04;0.00;0.00;0.62;0.00;0.00;0.62;2.77;2.23;;;17.60;20.30;;;;;;2248472;61;20950;-53
2024/01/13 02:08:49;0.00;0.00;0.62;0.00;0.00;0.62;2.83;1.90;;;17.60;20.20;;;;;;2248971;61;20367;-56
2024/01/13 02:11:34;0.00;0.00;0.62;0.00;0.00;0.62;3.53;2.33;;;17.60;20.30;;;;;;2248511;61;20514;-57
2024/01/13 02:14:18;0.00;0.00;0.62;0.00;0.00;0.62;3.80;2.57;;;17.70;20.30;;;;;;2248817;61;20948;-53
2024/01/13 02:17:04;0.00;0.00;0.62;0.00;0.00;0.62;2.60;1.90;;;17.60;20.20;;;;;;2248976;61;20371;-59
2024/01/13 02:19:50;0.00;0.00;0.62;0.00;0.00;0.62;3.20;2.10;;;17.60;20.30;;;;;;2248496;61;20444;-54
2024/01/13 02:22:36;0.00;0.00;0.62;0.00;0.00;0.62;2.60;2.20;;;17.60;20.30;;;;;;2244949;61;20461;-57
2024/01/13 02:25:21;0.00;0.00;0.62;0.00;0.00;0.62;2.63;2.13;;;17.60;20.30;;;;;;2248939;61;20371;-57
2024/01/13 02:28:06;0.00;0.00;0.62;0.00;0.00;0.62;2.27;1.80;;;17.60;20.30;;;;;;2248701;61;20932;-57
2024/01/13 02:30:51;0.00;0.00;0.62;0.00;0.00;0.62;2.73;2.10;;;17.60;20.20;;;;;;2248543;61;20375;-59
2024/01/13 02:33:35;0.00;0.00;0.62;0.00;0.00;0.62;3.80;2.30;;;17.70;20.30;;;;;;2248214;61;20411;-57
2024/01/13 02:36:20;0.00;0.00;0.62;0.00;0.00;0.62;2.30;1.67;;;17.70;20.30;;;;;;2248733;61;20405;-57
2024/01/13 02:39:06;0.00;0.00;0.62;0.00;0.00;0.62;2.47;1.80;;;17.60;20.30;;;;;;2248661;61;20920;-56
2024/01/13 02:41:51;0.00;0.00;0.62;0.00;0.00;0.62;2.27;1.80;;;17.60;20.30;;;;;;2248041;61;20396;-54
2024/01/13 02:44:35;0.00;0.00;0.62;0.00;0.00;0.62;3.50;2.10;;;17.70;20.90;;;;;;2248726;61;20440;-56
2024/01/13 02:47:26;0.00;0.00;0.62;0.00;0.00;0.62;2.23;1.97;;;17.70;20.30;;;;;;2248903;61;20459;-57
2024/01/13 02:50:11;0.00;0.00;0.62;0.00;0.00;0.62;2.53;1.70;;;17.60;20.30;;;;;;2248617;61;20407;-54
2024/01/13 02:52:56;0.00;0.00;0.62;0.00;0.00;0.62;2.30;2.00;;;17.60;20.30;;;;;;2248162;61;20459;-56
2024/01/13 02:55:42;0.00;0.00;0.62;0.00;0.00;0.62;2.47;1.70;;;17.60;20.30;;;;;;2248334;61;20372;-57
2024/01/13 02:58:26;0.00;0.00;0.62;0.00;0.00;0.62;2.73;2.07;;;17.60;20.80;;;;;;2248715;61;20427;-58
2024/01/13 03:01:11;0.00;0.00;0.62;0.00;0.00;0.62;2.17;1.67;;;17.60;20.30;;;;;;2248742;61;20390;-52
2024/01/13 03:03:56;0.00;0.00;0.62;0.00;0.00;0.62;2.93;2.30;;;17.60;20.30;;;;;;2248008;61;20463;-56
2024/01/13 03:06:40;0.00;0.00;0.62;0.00;0.00;0.62;2.70;1.80;;;17.70;20.30;;;;;;2248687;61;20371;-57
2024/01/13 03:09:25;0.00;0.00;0.62;0.00;0.00;0.62;1.80;1.37;;;17.60;20.30;;;;;;2248270;61;20363;-57
2024/01/13 03:12:11;0.00;0.00;0.62;0.00;0.00;0.62;2.17;1.73;;;17.70;20.40;;;;;;2248180;61;20948;-58
2024/01/13 03:14:56;0.00;0.00;0.62;0.00;0.00;0.62;2.80;1.87;;;17.60;20.30;;;;;;2248218;61;20426;-58
2024/01/13 03:17:41;0.00;0.00;0.62;0.00;0.00;0.62;2.27;1.67;;;17.60;20.80;;;;;;2248678;61;20900;-53
2024/01/13 03:20:25;0.00;0.00;0.62;0.00;0.00;0.62;2.37;1.77;;;17.60;20.30;;;;;;2248551;61;20371;-56
2024/01/13 03:23:10;0.00;0.00;0.62;0.00;0.00;0.62;2.03;1.63;;;17.70;20.40;;;;;;2248323;61;20391;-59
2024/01/13 03:25:54;0.00;0.00;0.62;0.00;0.00;0.62;3.17;1.93;;;17.70;20.30;;;;;;2248403;61;20912;-57
2024/01/13 03:28:40;0.00;0.00;0.62;0.00;0.00;0.62;2.60;2.00;;;17.70;20.40;;;;;;2248693;61;20896;-58
2024/01/13 03:31:25;0.00;0.00;0.62;0.00;0.00;0.62;2.00;1.60;;;17.60;20.30;;;;;;2248488;61;20395;-57
2024/01/13 03:34:09;0.00;0.00;0.62;0.00;0.00;0.62;2.87;1.97;;;17.70;20.30;;;;;;2248437;61;20367;-53
2024/01/13 03:36:54;0.00;0.00;0.62;0.00;0.00;0.62;2.73;1.73;;;17.70;20.30;;;;;;2248495;61;20479;-58
2024/01/13 03:39:39;0.00;0.00;0.62;0.00;0.00;0.62;2.10;1.40;;;17.70;20.30;;;;;;2248560;61;20451;-57
2024/01/13 03:42:23;0.00;0.00;0.62;0.00;0.00;0.62;2.10;1.50;;;17.70;20.40;;;;;;2248140;61;20411;-58
2024/01/13 03:45:09;0.00;0.00;0.62;0.00;0.00;0.62;2.37;1.63;;;17.70;20.40;;;;;;2248767;61;20415;-60
2024/01/13 03:47:54;0.00;0.00;0.62;0.00;0.00;0.62;4.87;1.40;;;17.70;20.40;;;;;;2248554;61;20360;-55
2024/01/13 03:50:38;0.00;0.00;0.62;0.00;0.00;0.62;2.13;1.50;;;17.60;20.30;;;;;;2248185;61;20370;-57
2024/01/13 03:53:23;0.00;0.00;0.62;0.00;0.00;0.62;1.80;1.30;;;17.70;20.40;;;;;;2248292;61;20458;-56
2024/01/13 03:56:08;0.00;0.00;0.62;0.00;0.00;0.62;2.13;1.37;;;17.70;20.40;;;;;;2248433;61;20456;-58
2024/01/13 03:58:53;0.00;0.00;0.62;0.00;0.00;0.62;1.93;1.37;;;17.70;20.30;;;;;;2248443;61;20434;-57
2024/01/13 04:01:39;0.00;0.00;0.62;0.00;0.00;0.62;2.00;1.30;;;17.70;20.40;;;;;;2248311;61;20435;-58
2024/01/13 04:04:23;0.00;0.00;0.62;0.00;0.00;0.62;2.17;1.63;;;17.70;20.40;;;;;;2248125;61;20408;-57
2024/01/13 04:07:08;0.00;0.00;0.62;0.00;0.00;0.62;1.90;1.43;;;17.70;20.40;;;;;;2248814;61;20395;-55
2024/01/13 04:09:52;0.00;0.00;0.62;0.00;0.00;0.62;1.87;1.33;;;17.70;20.40;;;;;;2248190;61;20364;-56
2024/01/13 04:12:37;0.00;0.00;0.62;0.00;0.00;0.62;2.03;1.50;;;17.70;20.40;;;;;;2248367;61;20399;-54
2024/01/13 04:15:22;0.00;0.00;0.62;0.00;0.00;0.62;1.90;1.20;;;17.70;20.40;;;;;;2247902;61;20386;-57
2024/01/13 04:18:08;0.00;0.00;0.62;0.00;0.00;0.62;2.10;1.40;;;17.70;20.40;;;;;;2247779;61;20483;-58
2024/01/13 04:20:53;0.00;0.00;0.62;0.00;0.00;0.62;3.03;1.60;;;17.70;20.40;;;;;;2248256;61;20481;-61
2024/01/13 04:23:38;0.00;0.00;0.62;0.00;0.00;0.62;1.60;1.20;;;17.70;20.40;;;;;;2248205;61;20415;-54
2024/01/13 04:26:22;0.00;0.00;0.62;0.00;0.00;0.62;1.90;1.40;;;17.70;20.40;;;;;;2248133;61;20410;-58
2024/01/13 04:29:07;0.00;0.00;0.62;0.00;0.00;0.62;1.60;1.10;;;17.70;20.40;;;;;;2248625;61;20368;-53
2024/01/13 04:31:51;0.00;0.00;0.62;0.00;0.00;0.62;1.70;1.20;;;17.70;20.40;;;;;;2248147;61;20399;-56
2024/01/13 04:34:37;0.00;0.00;0.62;0.00;0.00;0.62;2.40;1.60;;;17.70;20.40;;;;;;2248379;61;20355;-57
2024/01/13 04:37:22;0.00;0.00;0.62;0.00;0.00;0.62;1.70;1.20;;;17.70;20.40;;;;;;2248510;61;20876;-56
2024/01/13 04:40:08;0.00;0.00;0.62;0.00;0.00;0.62;1.70;1.10;;;17.70;20.40;;;;;;2247859;61;20415;-57
2024/01/13 04:42:53;0.00;0.00;0.62;0.00;0.00;0.62;1.83;1.27;;;17.70;20.40;;;;;;2248203;61;20387;-58
2024/01/13 04:45:39;0.00;0.00;0.62;0.00;0.00;0.62;1.60;1.00;;;17.70;20.40;;;;;;2248507;61;20440;-57
2024/01/13 04:48:23;0.00;0.00;0.62;0.00;0.00;0.62;1.90;1.20;;;17.70;20.40;;;;;;2248216;61;20352;-57
2024/01/13 04:51:09;0.00;0.00;0.62;0.00;0.00;0.62;2.10;1.30;;;17.70;20.40;;;;;;2245228;61;20925;-52
2024/01/13 04:53:56;0.00;0.00;0.62;0.00;0.00;0.62;1.90;1.40;;;17.70;20.40;;;;;;2247905;61;20383;-59
2024/01/13 04:56:41;0.00;0.00;0.62;0.00;0.00;0.62;1.80;1.30;;;17.70;20.40;;;;;;2248585;61;20347;-55
2024/01/13 04:59:26;0.00;0.00;0.62;0.00;0.00;0.62;1.93;1.27;;;17.70;20.40;;;;;;2248374;61;20395;-55
2024/01/13 05:02:11;0.00;0.00;0.62;0.00;0.00;0.62;1.50;0.90;;;17.70;20.40;;;;;;2247869;61;20458;-56
2024/01/13 05:04:55;0.00;0.00;0.62;0.00;0.00;0.62;1.60;1.27;;;17.70;20.40;;;;;;2248342;61;20884;-56
2024/01/13 05:07:41;0.00;0.00;0.62;0.00;0.00;0.62;1.90;1.10;;;17.70;20.40;;;;;;2248356;61;20352;-53
2024/01/13 05:10:27;0.00;0.00;0.62;0.00;0.00;0.62;1.60;1.10;;;17.70;20.40;;;;;;2247964;61;20376;-57
2024/01/13 05:13:12;0.00;0.00;0.62;0.00;0.00;0.62;1.50;0.93;;;17.70;20.40;;;;;;2248096;61;20855;-54
2024/01/13 05:15:56;0.00;0.00;0.62;0.00;0.00;0.62;1.93;1.40;;;17.70;20.40;;;;;;2248438;61;20379;-56
2024/01/13 05:18:41;0.00;0.00;0.62;0.00;0.00;0.62;1.40;0.90;;;17.70;20.40;;;;;;2248583;61;20402;-56
2024/01/13 05:21:25;0.00;0.00;0.62;0.00;0.00;0.62;1.50;0.90;;;17.70;20.40;;;;;;2248321;61;20996;-53
2024/01/13 05:24:13;0.00;0.00;0.62;0.00;0.00;0.62;1.60;1.03;;;17.70;20.40;;;;;;2248145;61;20475;-55
2024/01/13 05:26:58;0.00;0.00;0.62;0.00;0.00;0.62;2.07;1.20;;;17.70;20.40;;;;;;2248521;61;20479;-55
2024/01/13 05:29:43;0.00;0.00;0.62;0.00;0.00;0.62;1.70;1.20;;;17.70;20.40;;;;;;2248304;61;20423;-51
2024/01/13 05:32:28;0.00;0.00;0.62;0.00;0.00;0.62;1.40;0.70;;;17.70;20.40;;;;;;2248016;61;20419;-55
2024/01/13 05:35:14;0.00;0.00;0.62;0.00;0.00;0.62;1.33;0.83;;;17.70;20.40;;;;;;2249090;61;20363;-54
2024/01/13 05:37:59;0.00;0.00;0.62;0.00;0.00;0.62;1.77;0.90;;;17.70;20.40;;;;;;2249141;61;20819;-58
2024/01/13 05:40:45;0.00;0.00;0.62;0.00;0.00;0.62;2.07;1.13;;;17.70;20.40;;;;;;2249121;61;20458;-57
2024/01/13 05:43:29;0.00;0.00;0.62;0.00;0.00;0.62;1.60;0.90;;;17.70;20.40;;;;;;2248912;61;20378;-53
2024/01/13 05:46:14;0.00;0.00;0.62;0.00;0.00;0.62;1.80;0.90;;;17.70;20.40;;;;;;2248888;61;20788;-57
2024/01/13 05:49:01;0.00;0.00;0.62;0.00;0.00;0.62;1.90;1.30;;;17.70;20.40;;;;;;2248736;61;20487;-59
2024/01/13 05:51:45;0.00;0.00;0.62;0.00;0.00;0.62;1.77;0.90;;;17.70;20.40;;;;;;2248677;61;20391;-58
2024/01/13 05:54:30;0.00;0.00;0.62;0.00;0.00;0.62;1.63;1.00;;;17.70;20.40;;;;;;2248618;61;20379;-57
2024/01/13 05:57:16;0.00;0.00;0.62;0.00;0.00;0.62;1.60;0.90;;;17.70;20.40;;;;;;2249197;61;20367;-55
2024/01/13 06:00:00;0.00;0.00;0.62;0.00;0.00;0.62;1.50;0.90;;;17.70;20.40;;;;;;2248816;61;20449;-56
2024/01/13 06:02:45;0.00;0.00;0.62;0.00;0.00;0.62;1.50;1.10;;;17.70;21.00;;;;;;2248400;61;20427;-57
2024/01/13 06:05:31;0.00;0.00;0.62;0.00;0.00;0.62;1.57;0.90;;;17.70;20.40;;;;;;2248889;61;20394;-57
2024/01/13 06:08:16;0.00;0.00;0.62;0.00;0.00;0.62;1.40;0.80;;;17.70;20.40;;;;;;2249021;61;20562;-52
2024/01/13 06:11:01;0.00;0.00;0.62;0.00;0.00;0.62;1.40;0.87;;;17.70;20.40;;;;;;2249272;61;20755;-56
2024/01/13 06:13:47;0.00;0.00;0.62;0.00;0.00;0.62;1.57;0.80;;;17.70;20.40;;;;;;2248842;61;20924;-54
2024/01/13 06:16:32;0.00;0.00;0.62;0.00;0.00;0.62;1.50;0.80;;;17.70;20.40;;;;;;2248459;61;20418;-58
2024/01/13 06:19:17;0.00;0.00;0.62;0.00;0.00;0.62;2.07;0.90;;;17.70;20.40;;;;;;2248888;61;20419;-60
2024/01/13 06:22:02;0.00;0.00;0.62;0.00;0.00;0.62;1.80;1.00;;;17.70;20.40;;;;;;2248568;61;20388;-56
2024/01/13 06:24:47;0.00;0.00;0.62;0.00;0.00;0.62;1.90;1.00;;;17.70;20.40;;;;;;2248847;61;20472;-56
2024/01/13 06:27:31;0.00;0.00;0.62;0.00;0.00;0.62;1.50;1.10;;;17.70;20.40;;;;;;2248794;61;20455;-57
2024/01/13 06:30:17;0.00;0.00;0.62;0.00;0.00;0.62;1.50;0.80;;;17.70;20.40;;;;;;2248809;61;20371;-53
2024/01/13 06:33:03;0.00;0.00;0.62;0.00;0.00;0.62;1.70;0.90;;;17.70;20.40;;;;;;2248330;61;20496;-56
2024/01/13 06:35:49;0.00;0.00;0.62;0.00;0.00;0.62;1.60;1.00;;;17.70;20.40;;;;;;2248959;61;20368;-53
2024/01/13 06:38:33;0.00;0.00;0.62;0.00;0.00;0.62;1.80;1.10;;;17.70;20.40;;;;;;2248623;61;20944;-53
2024/01/13 06:41:18;0.00;0.00;0.62;0.00;0.00;0.62;1.40;0.80;;;17.70;20.40;;;;;;2248603;61;20434;-54
2024/01/13 06:44:03;0.00;0.00;0.62;0.00;0.00;0.62;1.40;0.90;;;17.70;20.50;;;;;;2248539;61;20366;-59
2024/01/13 06:46:49;0.00;0.00;0.62;0.00;0.00;0.62;1.60;0.77;;;17.70;20.40;;;;;;2248708;61;20889;-56
2024/01/13 06:49:34;0.00;0.00;0.62;0.00;0.00;0.62;1.30;0.77;;;17.70;21.00;;;;;;2248309;61;20519;-59
2024/01/13 06:52:18;0.00;0.00;0.62;0.00;0.00;0.62;1.30;0.70;;;17.70;20.40;;;;;;2247945;61;20841;-58
2024/01/13 06:55:06;0.00;0.00;0.62;0.00;0.00;0.62;1.30;0.80;;;17.70;20.40;;;;;;2248415;61;20496;-59
2024/01/13 06:57:51;0.00;0.00;0.62;0.00;0.00;0.62;1.30;0.80;;;17.70;20.50;;;;;;2245328;61;20366;-56
2024/01/13 07:00:37;0.00;0.00;0.62;0.00;0.00;0.62;1.40;0.80;;;17.70;20.50;;;;;;2248244;61;20446;-57
2024/01/13 07:03:23;0.00;0.00;0.62;0.00;0.00;0.62;1.40;0.80;;;17.70;20.50;;;;;;2248420;61;20402;-56
2024/01/13 07:06:08;0.00;0.00;0.62;0.00;0.00;0.62;1.47;0.80;;;17.70;20.50;;;;;;2248731;61;20352;-55
2024/01/13 07:08:55;0.00;0.00;0.62;0.00;0.00;0.62;1.40;0.70;;;17.70;20.50;;;;;;2248535;61;20821;-58
2024/01/13 07:11:40;0.00;0.00;0.62;0.00;0.00;0.62;1.27;0.70;;;17.70;20.50;;;;;;2248634;61;20483;-54
2024/01/13 07:14:24;0.00;0.00;0.62;0.00;0.00;0.62;1.70;0.80;;;17.70;20.50;;;;;;2248909;61;20379;-52
2024/01/13 07:17:09;0.00;0.00;0.62;0.00;0.00;0.62;1.30;0.70;;;17.70;20.50;;;;;;2248775;61;20363;-49
2024/01/13 07:19:54;0.00;0.00;0.62;0.00;0.00;0.62;1.70;0.80;;;17.70;20.50;;;;;;2248727;61;20861;-57
2024/01/13 07:22:39;0.00;0.00;0.62;0.00;0.00;0.62;1.27;0.70;;;17.70;20.50;;;;;;2248263;61;20388;-54
2024/01/13 07:25:25;0.00;0.00;0.62;0.00;0.00;0.62;1.30;0.70;;;17.70;20.50;;;;;;2248835;61;20367;-50
2024/01/13 07:28:10;0.00;0.00;0.62;0.00;0.00;0.62;1.30;0.70;;;17.70;20.50;;;;;;2248334;61;21038;-53
2024/01/13 07:30:54;0.00;0.00;0.62;0.00;0.00;0.62;1.47;0.73;;;17.70;20.50;;;;;;2248526;61;20399;-54
2024/01/13 07:33:39;0.00;0.00;0.62;0.00;0.00;0.62;1.30;0.70;;;17.70;20.50;;;;;;2248112;61;20363;-55
2024/01/13 07:36:25;0.00;0.00;0.62;0.00;0.00;0.62;1.33;0.70;;;17.70;20.50;;;;;;2248854;61;20375;-52
2024/01/13 07:39:09;0.00;0.00;0.62;0.00;0.00;0.62;1.40;0.70;;;17.70;20.50;;;;;;2248793;61;20414;-57
2024/01/13 07:41:54;0.00;0.00;0.62;0.00;0.00;0.62;1.30;0.70;;;17.70;20.50;;;;;;2248270;61;20395;-56
2024/01/13 07:44:41;0.00;0.00;0.62;0.00;0.00;0.62;1.40;0.70;;;17.70;20.50;;;;;;2248229;61;20395;-54
2024/01/13 07:47:26;0.00;0.00;0.62;0.00;0.00;0.62;1.40;0.70;;;17.70;20.50;;;;;;2248260;61;20416;-57
2024/01/13 07:50:11;0.00;0.00;0.62;0.00;0.00;0.62;1.33;0.73;;;17.70;20.50;;;;;;2248260;61;20775;-56
2024/01/13 07:52:56;0.00;0.00;0.62;0.00;0.00;0.62;1.30;0.70;;;17.70;20.50;;;;;;2248012;61;20442;-54
2024/01/13 07:55:41;0.00;0.00;0.62;0.00;0.00;0.62;1.50;0.80;;;17.70;20.50;;;;;;2248223;61;20394;-58
2024/01/13 07:58:26;0.00;0.00;0.62;0.00;0.00;0.62;1.30;0.70;;;17.70;20.50;;;;;;2248591;61;20567;-54
2024/01/13 08:01:10;0.00;0.00;0.62;0.00;0.00;0.62;1.50;0.83;;;17.70;20.50;;;;;;2248392;61;20367;-56
2024/01/13 08:03:55;0.00;0.00;0.62;0.00;0.00;0.62;1.60;0.70;;;17.70;20.50;;;;;;2248244;61;20455;-57
2024/01/13 08:06:40;0.00;0.00;0.62;0.00;0.00;0.62;1.20;0.70;;;17.70;20.50;;;;;;2248478;61;20784;-57
2024/01/13 08:09:26;0.00;0.00;0.62;0.00;0.00;0.62;1.30;0.70;;;17.70;20.50;;;;;;2248738;61;20468;-58
2024/01/13 08:12:10;0.00;0.00;0.62;0.00;0.00;0.62;1.40;0.80;;;17.70;21.00;;;;;;2248291;61;20808;-57
2024/01/13 08:14:55;0.00;0.00;0.62;0.00;0.00;0.62;1.50;0.70;;;17.70;20.50;;;;;;2248210;61;20787;-56
2024/01/13 08:17:39;0.00;0.00;0.62;0.00;0.00;0.62;1.63;0.73;;;17.70;20.50;;;;;;2248111;61;20393;-56
2024/01/13 08:20:24;0.00;0.00;0.62;0.00;0.00;0.62;1.30;0.80;;;17.70;20.50;;;;;;2248069;61;20472;-57
2024/01/13 08:23:09;0.00;0.00;0.62;0.00;0.00;0.62;1.30;0.70;;;17.70;20.50;;;;;;2247793;61;20403;-59
2024/01/13 08:25:55;0.00;0.00;0.62;0.00;0.00;0.62;1.30;0.70;;;17.70;20.50;;;;;;2248545;61;20364;-57
2024/01/13 08:28:39;0.00;0.00;0.62;0.00;0.00;0.62;1.67;0.67;;;17.70;20.50;;;;;;2248287;61;20352;-57
2024/01/13 08:31:24;0.00;0.00;0.62;0.00;0.00;0.62;1.30;0.70;;;17.70;20.50;;;;;;2248052;61;20419;-59
2024/01/13 08:34:09;0.00;0.00;0.62;0.00;0.00;0.62;1.40;0.80;;;17.70;20.50;;;;;;2248636;61;20768;-54
2024/01/13 08:36:53;0.00;0.00;0.62;0.00;0.00;0.62;1.27;0.63;;;17.70;20.50;;;;;;2248405;61;20508;-57
2024/01/13 08:39:38;0.00;0.00;0.62;0.00;0.00;0.62;1.30;0.70;;;17.70;20.50;;;;;;2248439;61;20387;-55
2024/01/13 08:42:24;0.00;0.00;0.62;0.00;0.00;0.62;1.33;0.70;;;17.70;20.50;;;;;;2248439;61;20382;-54
2024/01/13 08:45:09;0.00;0.00;0.62;0.00;0.00;0.62;1.20;0.60;;;17.70;20.50;;;;;;2248100;61;20797;-56
2024/01/13 08:47:54;0.00;0.00;0.62;0.00;0.00;0.62;1.20;0.60;;;17.70;20.50;;;;;;2248422;61;20375;-58
2024/01/13 08:50:39;0.00;0.00;0.62;0.00;0.00;0.62;1.20;0.60;;;17.70;20.50;;;;;;2248336;61;20904;-57
2024/01/13 08:53:24;0.00;0.00;0.62;0.00;0.00;0.62;1.40;0.77;;;17.70;20.50;;;;;;2248380;61;20902;-58
2024/01/13 08:56:09;0.00;0.00;0.62;0.00;0.00;0.62;1.40;0.70;;;17.70;20.50;;;;;;2248400;61;20415;-58
2024/01/13 08:58:55;0.00;0.00;0.62;0.00;0.00;0.62;1.30;0.70;;;17.70;20.50;;;;;;2248314;61;20391;-54
2024/01/13 09:01:40;0.00;0.00;0.62;0.00;0.00;0.62;1.30;0.70;;;17.70;20.50;;;;;;2248128;61;20439;-59
2024/01/13 09:04:24;0.00;0.00;0.62;0.00;0.00;0.62;1.30;0.67;;;17.70;20.50;;;;;;2248476;61;20364;-55
2024/01/13 09:07:09;0.00;0.00;0.62;0.00;0.00;0.62;1.37;0.77;;;17.70;20.50;;;;;;2248241;61;21105;-58
2024/01/13 09:09:54;0.00;0.00;0.62;0.00;0.00;0.62;1.30;0.80;;;17.70;20.50;;;;;;2248498;61;20391;-57
2024/01/13 09:12:38;0.00;0.00;0.62;0.00;0.00;0.62;1.30;0.70;;;17.70;20.50;;;;;;2248274;61;20423;-55
2024/01/13 09:15:26;0.00;0.00;0.62;0.00;0.00;0.62;1.40;0.70;;;17.70;20.50;;;;;;2248544;61;20416;-56
2024/01/13 09:18:10;0.00;0.00;0.62;0.00;0.00;0.62;1.60;0.90;;;17.70;20.50;;;;;;2248032;61;20856;-58
2024/01/13 09:20:55;0.00;0.00;0.62;0.00;0.00;0.62;1.50;0.90;;;17.70;20.50;;;;;;2248023;61;20629;-57
2024/01/13 09:23:40;0.00;0.00;0.62;0.00;0.00;0.62;1.60;0.70;;;17.70;20.50;;;;;;2248205;61;20458;-54
2024/01/13 09:26:25;0.00;0.00;0.62;0.00;0.00;0.62;2.97;1.10;;;17.70;20.50;;;;;;2248466;61;20411;-58
2024/01/13 09:29:11;0.00;0.00;0.62;0.00;0.00;0.62;1.60;0.90;;;17.70;20.60;;;;;;2247688;61;20373;-56
2024/01/13 09:31:59;0.00;0.00;0.62;0.00;0.00;0.62;1.63;1.03;;;17.70;20.50;;;;;;2248114;61;20923;-57
2024/01/13 09:34:43;0.00;0.00;0.62;0.00;0.00;0.62;1.73;0.97;;;17.70;20.50;;;;;;2248332;61;20541;-56
2024/01/13 09:37:28;0.00;0.00;0.62;0.00;0.00;0.62;2.33;1.30;;;17.70;20.50;;;;;;2248300;61;20919;-57
2024/01/13 09:40:13;0.00;0.00;0.62;0.00;0.00;0.62;2.30;1.47;;;17.70;20.50;;;;;;2248188;61;20506;-54
2024/01/13 09:43:11;0.00;0.00;0.62;0.00;0.00;0.62;2.43;1.57;;;17.70;20.60;;;;;;2247768;61;20395;-51
2024/01/13 09:45:56;0.00;0.00;0.62;0.00;0.00;0.62;2.27;1.40;;;17.70;20.50;;;;;;2248088;61;20455;-56
2024/01/13 09:48:47;0.00;0.00;0.62;0.00;0.00;0.62;2.40;1.57;;;17.70;20.50;;;;;;2248400;61;20436;-57
2024/01/13 09:51:33;0.00;0.00;0.62;0.00;0.00;0.62;3.10;1.70;;;17.70;21.10;;;;;;2248080;61;20391;-60
2024/01/13 09:54:23;0.00;0.00;0.62;0.00;0.00;0.62;2.10;1.50;;;17.70;20.50;;;;;;2248491;61;20415;-57
2024/01/13 09:57:07;0.00;0.00;0.62;0.00;0.00;0.62;2.23;1.63;;;17.70;20.60;;;;;;2248425;61;20356;-57
2024/01/13 09:59:52;0.00;0.00;0.62;0.00;0.00;0.62;4.53;2.23;;;17.70;20.50;;;;;;2248159;61;20503;-52
2024/01/13 10:02:37;0.00;0.00;0.62;0.00;0.00;0.62;2.73;1.70;;;17.70;20.60;;;;;;2248165;61;20395;-55
2024/01/13 10:05:23;0.00;0.00;0.62;0.00;0.00;0.62;2.93;2.00;;;17.70;20.50;;;;;;2247896;61;20368;-57
2024/01/13 10:08:08;0.00;0.00;0.62;0.00;0.00;0.62;4.30;2.40;;;17.70;20.60;;;;;;2248180;61;20365;-57
2024/01/13 10:10:52;0.00;0.00;0.62;0.00;0.00;0.62;3.40;1.90;;;17.70;20.60;;;;;;2248450;61;20391;-57
2024/01/13 10:13:37;0.00;0.00;0.62;0.00;0.00;0.62;2.77;2.13;;;17.70;20.60;;;;;;2247698;61;20363;-55
2024/01/13 10:16:26;0.00;0.00;0.62;0.00;0.00;0.62;3.00;2.03;;;17.70;20.60;;;;;;2250372;61;20376;-57
2024/01/13 10:19:10;0.00;0.00;0.62;0.00;0.00;0.62;3.70;2.40;;;17.70;20.60;;;;;;2248781;61;20434;-58
2024/01/13 10:21:56;0.00;0.00;0.62;0.00;0.00;0.62;3.33;2.27;;;17.80;20.70;;;;;;2248567;61;20403;-59
2024/01/13 10:24:41;0.00;0.00;0.62;0.00;0.00;0.62;3.17;2.20;;;17.70;20.60;;;;;;2248758;61;20376;-53
2024/01/13 10:27:26;0.00;0.00;0.62;0.00;0.00;0.62;2.90;2.07;;;17.70;20.60;;;;;;2248748;61;20783;-54
2024/01/13 10:30:13;0.00;0.00;0.62;0.00;0.00;0.62;4.40;2.20;;;17.70;20.60;;;;;;2248785;61;20360;-59
2024/01/13 10:32:59;0.00;0.00;0.62;0.00;0.00;0.62;3.27;2.43;;;17.80;20.70;;;;;;2248591;61;20475;-57
2024/01/13 10:35:47;0.00;0.00;0.62;0.00;0.00;0.62;3.43;2.47;;;17.80;20.70;;;;;;2248686;61;20363;-55
2024/01/13 10:38:33;0.00;0.00;0.62;0.00;0.00;0.62;3.20;2.00;;;17.70;20.60;;;;;;2248609;61;20363;-56
2024/01/13 10:41:22;0.00;0.00;0.62;0.00;0.00;0.62;2.40;1.83;;;17.80;20.70;;;;;;2248843;61;20391;-53
2024/01/13 10:44:09;0.00;0.00;0.62;0.00;0.00;0.62;3.33;2.20;;;17.70;20.60;;;;;;2248972;61;20423;-54
2024/01/13 10:46:56;0.00;0.00;0.62;0.00;0.00;0.62;3.20;2.20;;;17.70;20.60;;;;;;2248554;61;20491;-57
2024/01/13 10:49:45;0.00;0.00;0.62;0.00;0.00;0.62;2.93;2.57;;;17.80;20.70;;;;;;2248764;61;20379;-57
2024/01/13 10:52:38;0.00;0.00;0.62;0.00;0.00;0.62;3.20;2.23;;;17.80;20.70;;;;;;2248390;61;20896;-52